sensor_id;sensor_type;location;lat;lon;timestamp;pressure;altitude;pressure_sealevel;temperature;humidity
46942;BME280;32676;52.630;4.896;2023-07-31T00:01:26;99789.19;;;17.26;87.52
46942;BME280;32676;52.630;4.896;2023-07-31T00:03:52;99788.34;;;17.25;87.57
46942;BME280;32676;52.630;4.896;2023-07-31T00:06:19;99791.13;;;17.24;87.35
46942;BME280;32676;52.630;4.896;2023-07-31T00:08:45;99777.97;;;17.22;87.19
46942;BME280;32676;52.630;4.896;2023-07-31T00:11:13;99777.97;;;17.22;87.80
46942;BME280;32676;52.630;4.896;2023-07-31T00:13:39;99775.44;;;17.21;87.85
46942;BME280;32676;52.630;4.896;2023-07-31T00:16:05;99771.94;;;17.20;88.24
46942;BME280;32676;52.630;4.896;2023-07-31T00:18:31;99762.50;;;17.16;88.26
46942;BME280;32676;52.630;4.896;2023-07-31T00:20:58;99760.81;;;17.15;88.41
46942;BME280;32676;52.630;4.896;2023-07-31T00:23:24;99760.81;;;17.15;88.50
46942;BME280;32676;52.630;4.896;2023-07-31T00:25:51;99755.66;;;17.14;88.40
46942;BME280;32676;52.630;4.896;2023-07-31T00:28:18;99762.63;;;17.15;88.46
46942;BME280;32676;52.630;4.896;2023-07-31T00:30:44;99759.13;;;17.14;88.39
46942;BME280;32676;52.630;4.896;2023-07-31T00:33:11;99756.47;;;17.14;88.30
46942;BME280;32676;52.630;4.896;2023-07-31T00:35:37;99761.78;;;17.14;88.26
46942;BME280;32676;52.630;4.896;2023-07-31T00:38:04;99775.78;;;17.16;88.12
46942;BME280;32676;52.630;4.896;2023-07-31T00:40:34;99794.16;;;17.19;88.18
46942;BME280;32676;52.630;4.896;2023-07-31T00:43:00;99815.13;;;17.22;88.42
46942;BME280;32676;52.630;4.896;2023-07-31T00:45:27;99825.53;;;17.25;88.15
46942;BME280;32676;52.630;4.896;2023-07-31T00:47:54;99825.53;;;17.25;88.20
46942;BME280;32676;52.630;4.896;2023-07-31T00:50:20;99841.22;;;17.29;88.26
46942;BME280;32676;52.630;4.896;2023-07-31T00:52:48;99845.56;;;17.30;88.30
46942;BME280;32676;52.630;4.896;2023-07-31T00:55:15;99848.22;;;17.30;88.35
46942;BME280;32676;52.630;4.896;2023-07-31T00:57:42;99851.59;;;17.32;88.38
46942;BME280;32676;52.630;4.896;2023-07-31T01:00:14;99871.66;;;17.36;88.40
46942;BME280;32676;52.630;4.896;2023-07-31T01:02:42;99876.97;;;17.36;88.32
46942;BME280;32676;52.630;4.896;2023-07-31T01:05:08;99881.31;;;17.37;88.40
46942;BME280;32676;52.630;4.896;2023-07-31T01:07:37;99891.94;;;17.37;88.41
46942;BME280;32676;52.630;4.896;2023-07-31T01:10:07;99900.63;;;17.39;88.29
46942;BME280;32676;52.630;4.896;2023-07-31T01:12:34;99897.03;;;17.40;88.31
46942;BME280;32676;52.630;4.896;2023-07-31T01:15:02;99903.16;;;17.40;88.12
46942;BME280;32676;52.630;4.896;2023-07-31T01:17:28;99903.44;;;17.37;88.19
46942;BME280;32676;52.630;4.896;2023-07-31T01:19:59;99888.31;;;17.38;88.23
46942;BME280;32676;52.630;4.896;2023-07-31T01:22:30;99905.09;;;17.38;88.20
46942;BME280;32676;52.630;4.896;2023-07-31T01:25:06;99918.28;;;17.40;88.35
46942;BME280;32676;52.630;4.896;2023-07-31T01:27:42;99921.66;;;17.42;88.85
46942;BME280;32676;52.630;4.896;2023-07-31T01:30:11;99924.19;;;17.43;88.91
46942;BME280;32676;52.630;4.896;2023-07-31T01:32:42;99930.34;;;17.44;88.94
46942;BME280;32676;52.630;4.896;2023-07-31T01:35:09;99936.53;;;17.44;88.93
46942;BME280;32676;52.630;4.896;2023-07-31T01:37:35;99926.97;;;17.42;88.79
46942;BME280;32676;52.630;4.896;2023-07-31T01:40:03;99921.88;;;17.39;89.02
46942;BME280;32676;52.630;4.896;2023-07-31T01:42:29;99928.88;;;17.40;89.02
46942;BME280;32676;52.630;4.896;2023-07-31T01:44:57;99926.97;;;17.42;88.91
46942;BME280;32676;52.630;4.896;2023-07-31T01:47:23;99928.66;;;17.43;89.02
46942;BME280;32676;52.630;4.896;2023-07-31T01:49:49;99931.44;;;17.41;89.08
46942;BME280;32676;52.630;4.896;2023-07-31T01:52:16;99932.28;;;17.42;88.81
46942;BME280;32676;52.630;4.896;2023-07-31T01:54:42;99935.91;;;17.41;88.93
46942;BME280;32676;52.630;4.896;2023-07-31T01:57:08;99942.91;;;17.42;88.91
46942;BME280;32676;52.630;4.896;2023-07-31T01:59:34;99946.28;;;17.44;88.87
46942;BME280;32676;52.630;4.896;2023-07-31T02:02:02;99945.44;;;17.43;89.03
46942;BME280;32676;52.630;4.896;2023-07-31T02:04:28;99953.31;;;17.45;88.92
46942;BME280;32676;52.630;4.896;2023-07-31T02:06:55;99960.28;;;17.46;89.15
46942;BME280;32676;52.630;4.896;2023-07-31T02:09:21;99978.78;;;17.48;89.01
46942;BME280;32676;52.630;4.896;2023-07-31T02:11:47;99965.59;;;17.46;89.02
46942;BME280;32676;52.630;4.896;2023-07-31T02:14:14;99965.84;;;17.43;88.70
46942;BME280;32676;52.630;4.896;2023-07-31T02:16:40;99942.28;;;17.38;88.73
46942;BME280;32676;52.630;4.896;2023-07-31T02:19:09;99923.06;;;17.35;88.53
46942;BME280;32676;52.630;4.896;2023-07-31T02:21:35;99897.94;;;17.27;88.64
46942;BME280;32676;52.630;4.896;2023-07-31T02:24:01;99882.22;;;17.24;88.43
46942;BME280;32676;52.630;4.896;2023-07-31T02:26:28;99880.56;;;17.23;88.11
46942;BME280;32676;52.630;4.896;2023-07-31T02:28:54;99879.72;;;17.23;88.36
46942;BME280;32676;52.630;4.896;2023-07-31T02:31:20;99883.94;;;17.25;88.51
46942;BME280;32676;52.630;4.896;2023-07-31T02:33:46;99882.22;;;17.24;88.72
46942;BME280;32676;52.630;4.896;2023-07-31T02:36:14;99903.25;;;17.27;88.62
46942;BME280;32676;52.630;4.896;2023-07-31T02:38:40;99912.06;;;17.28;88.85
46942;BME280;32676;52.630;4.896;2023-07-31T02:41:07;99906.63;;;17.30;88.73
46942;BME280;32676;52.630;4.896;2023-07-31T02:43:33;99916.41;;;17.29;88.78
46942;BME280;32676;52.630;4.896;2023-07-31T02:45:59;99920.63;;;17.32;88.76
46942;BME280;32676;52.630;4.896;2023-07-31T02:48:26;99932.97;;;17.33;88.69
46942;BME280;32676;52.630;4.896;2023-07-31T02:50:53;99927.88;;;17.30;88.69
46942;BME280;32676;52.630;4.896;2023-07-31T02:53:20;99915.59;;;17.29;88.56
46942;BME280;32676;52.630;4.896;2023-07-31T02:55:48;99923.56;;;17.29;88.52
46942;BME280;32676;52.630;4.896;2023-07-31T02:58:14;99908.56;;;17.27;88.55
46942;BME280;32676;52.630;4.896;2023-07-31T03:00:41;99904.34;;;17.25;88.63
46942;BME280;32676;52.630;4.896;2023-07-31T03:03:08;99897.44;;;17.22;88.54
46942;BME280;32676;52.630;4.896;2023-07-31T03:05:34;99881.66;;;17.21;88.53
46942;BME280;32676;52.630;4.896;2023-07-31T03:08:00;99886.09;;;17.20;88.74
46942;BME280;32676;52.630;4.896;2023-07-31T03:10:28;99875.72;;;17.17;89.02
46942;BME280;32676;52.630;4.896;2023-07-31T03:12:54;99858.31;;;17.13;88.94
46942;BME280;32676;52.630;4.896;2023-07-31T03:15:21;99864.50;;;17.14;89.20
46942;BME280;32676;52.630;4.896;2023-07-31T03:17:47;99853.97;;;17.12;89.02
46942;BME280;32676;52.630;4.896;2023-07-31T03:20:14;99862.66;;;17.14;89.05
46942;BME280;32676;52.630;4.896;2023-07-31T03:22:40;99863.63;;;17.13;88.86
46942;BME280;32676;52.630;4.896;2023-07-31T03:25:06;99863.63;;;17.13;88.69
46942;BME280;32676;52.630;4.896;2023-07-31T03:27:36;99862.66;;;17.14;88.76
46942;BME280;32676;52.630;4.896;2023-07-31T03:30:02;99863.63;;;17.13;88.79
46942;BME280;32676;52.630;4.896;2023-07-31T03:32:29;99871.59;;;17.13;88.38
46942;BME280;32676;52.630;4.896;2023-07-31T03:34:55;99874.25;;;17.13;88.62
46942;BME280;32676;52.630;4.896;2023-07-31T03:37:21;99882.94;;;17.15;88.44
46942;BME280;32676;52.630;4.896;2023-07-31T03:39:47;99886.44;;;17.16;88.54
46942;BME280;32676;52.630;4.896;2023-07-31T03:42:14;99887.41;;;17.15;88.56
46942;BME280;32676;52.630;4.896;2023-07-31T03:44:42;99876.78;;;17.15;88.32
46942;BME280;32676;52.630;4.896;2023-07-31T03:47:08;99880.41;;;17.14;88.38
46942;BME280;32676;52.630;4.896;2023-07-31T03:49:35;99881.25;;;17.14;88.09
46942;BME280;32676;52.630;4.896;2023-07-31T03:52:01;99886.56;;;17.14;88.35
46942;BME280;32676;52.630;4.896;2023-07-31T03:54:27;99884.84;;;17.13;88.13
46942;BME280;32676;52.630;4.896;2023-07-31T03:56:54;99893.53;;;17.15;88.30
46942;BME280;32676;52.630;4.896;2023-07-31T03:59:20;99889.22;;;17.14;88.15
46942;BME280;32676;52.630;4.896;2023-07-31T04:01:47;99885.72;;;17.14;87.94
46942;BME280;32676;52.630;4.896;2023-07-31T04:04:14;99883.06;;;17.14;88.11
46942;BME280;32676;52.630;4.896;2023-07-31T04:06:40;99883.19;;;17.12;88.03
46942;BME280;32676;52.630;4.896;2023-07-31T04:09:06;99884.84;;;17.13;88.27
46942;BME280;32676;52.630;4.896;2023-07-31T04:11:33;99879.66;;;17.12;88.14
46942;BME280;32676;52.630;4.896;2023-07-31T04:13:59;99891.03;;;17.14;88.14
46942;BME280;32676;52.630;4.896;2023-07-31T04:16:25;99885.84;;;17.12;88.23
46942;BME280;32676;52.630;4.896;2023-07-31T04:18:53;99882.31;;;17.12;88.45
46942;BME280;32676;52.630;4.896;2023-07-31T04:21:19;99881.47;;;17.11;88.37
46942;BME280;32676;52.630;4.896;2023-07-31T04:23:45;99888.50;;;17.12;88.73
46942;BME280;32676;52.630;4.896;2023-07-31T04:26:12;99892.81;;;17.13;88.89
46942;BME280;32676;52.630;4.896;2023-07-31T04:28:38;99895.47;;;17.13;88.88
46942;BME280;32676;52.630;4.896;2023-07-31T04:31:06;99901.66;;;17.14;88.66
46942;BME280;32676;52.630;4.896;2023-07-31T04:33:32;99902.50;;;17.14;88.51
46942;BME280;32676;52.630;4.896;2023-07-31T04:35:59;99906.81;;;17.15;88.67
46942;BME280;32676;52.630;4.896;2023-07-31T04:38:26;99906.09;;;17.13;88.78
46942;BME280;32676;52.630;4.896;2023-07-31T04:40:52;99908.63;;;17.15;88.80
46942;BME280;32676;52.630;4.896;2023-07-31T04:43:18;99930.50;;;17.18;88.50
46942;BME280;32676;52.630;4.896;2023-07-31T04:45:45;99933.03;;;17.20;88.50
46942;BME280;32676;52.630;4.896;2023-07-31T04:48:12;99936.53;;;17.20;88.41
46942;BME280;32676;52.630;4.896;2023-07-31T04:50:38;99940.06;;;17.21;88.37
46942;BME280;32676;52.630;4.896;2023-07-31T04:53:06;99926.16;;;17.17;88.51
46942;BME280;32676;52.630;4.896;2023-07-31T04:55:32;99938.34;;;17.20;88.92
46942;BME280;32676;52.630;4.896;2023-07-31T04:57:58;99941.84;;;17.20;88.97
46942;BME280;32676;52.630;4.896;2023-07-31T05:00:25;99952.34;;;17.22;89.08
46942;BME280;32676;52.630;4.896;2023-07-31T05:02:51;99959.38;;;17.23;89.08
46942;BME280;32676;52.630;4.896;2023-07-31T05:05:17;99953.19;;;17.22;89.32
46942;BME280;32676;52.630;4.896;2023-07-31T05:07:44;99941.94;;;17.19;88.97
46942;BME280;32676;52.630;4.896;2023-07-31T05:10:11;99927.13;;;17.16;89.03
46942;BME280;32676;52.630;4.896;2023-07-31T05:12:38;99919.38;;;17.13;89.11
46942;BME280;32676;52.630;4.896;2023-07-31T05:15:04;99918.63;;;17.11;89.55
46942;BME280;32676;52.630;4.896;2023-07-31T05:17:31;99935.06;;;17.16;89.55
46942;BME280;32676;52.630;4.896;2023-07-31T05:19:57;99937.72;;;17.16;89.77
46942;BME280;32676;52.630;4.896;2023-07-31T05:22:23;99942.09;;;17.17;89.84
46942;BME280;32676;52.630;4.896;2023-07-31T05:24:50;99952.56;;;17.19;90.15
46942;BME280;32676;52.630;4.896;2023-07-31T05:27:17;99952.56;;;17.19;90.05
46942;BME280;32676;52.630;4.896;2023-07-31T05:29:44;99954.28;;;17.20;90.55
46942;BME280;32676;52.630;4.896;2023-07-31T05:32:11;99958.66;;;17.21;90.73
46942;BME280;32676;52.630;4.896;2023-07-31T05:34:37;99966.47;;;17.22;90.86
46942;BME280;32676;52.630;4.896;2023-07-31T05:37:04;99977.81;;;17.24;90.81
46942;BME280;32676;52.630;4.896;2023-07-31T05:39:30;99973.50;;;17.23;90.97
46942;BME280;32676;52.630;4.896;2023-07-31T05:41:57;99991.84;;;17.26;90.78
46942;BME280;32676;52.630;4.896;2023-07-31T05:44:24;100000.56;;;17.29;90.96
46942;BME280;32676;52.630;4.896;2023-07-31T05:46:51;100007.53;;;17.30;90.71
46942;BME280;32676;52.630;4.896;2023-07-31T05:49:17;100021.56;;;17.32;91.11
46942;BME280;32676;52.630;4.896;2023-07-31T05:51:43;100017.94;;;17.33;90.93
46942;BME280;32676;52.630;4.896;2023-07-31T05:54:09;100027.72;;;17.32;91.17
46942;BME280;32676;52.630;4.896;2023-07-31T05:56:36;100043.31;;;17.37;90.96
46942;BME280;32676;52.630;4.896;2023-07-31T05:59:02;100054.66;;;17.39;91.28
46942;BME280;32676;52.630;4.896;2023-07-31T06:01:31;100061.69;;;17.40;91.21
46942;BME280;32676;52.630;4.896;2023-07-31T06:03:57;100061.69;;;17.40;90.94
46942;BME280;32676;52.630;4.896;2023-07-31T06:06:23;100061.69;;;17.40;91.21
46942;BME280;32676;52.630;4.896;2023-07-31T06:08:50;100074.03;;;17.41;90.98
46942;BME280;32676;52.630;4.896;2023-07-31T06:11:16;100089.72;;;17.44;91.04
46942;BME280;32676;52.630;4.896;2023-07-31T06:13:42;100086.09;;;17.45;91.16
46942;BME280;32676;52.630;4.896;2023-07-31T06:16:09;100094.06;;;17.45;91.17
46942;BME280;32676;52.630;4.896;2023-07-31T06:18:37;100101.81;;;17.48;91.17
46942;BME280;32676;52.630;4.896;2023-07-31T06:21:03;100117.53;;;17.51;91.22
46942;BME280;32676;52.630;4.896;2023-07-31T06:23:30;100122.72;;;17.53;91.34
46942;BME280;32676;52.630;4.896;2023-07-31T06:25:56;100126.22;;;17.53;91.10
46942;BME280;32676;52.630;4.896;2023-07-31T06:28:23;100133.25;;;17.54;91.35
46942;BME280;32676;52.630;4.896;2023-07-31T06:30:53;100154.16;;;17.59;91.31
46942;BME280;32676;52.630;4.896;2023-07-31T06:33:19;100185.50;;;17.67;91.43
46942;BME280;32676;52.630;4.896;2023-07-31T06:35:47;100209.06;;;17.71;91.47
46942;BME280;32676;52.630;4.896;2023-07-31T06:38:13;100223.97;;;17.74;91.12
46942;BME280;32676;52.630;4.896;2023-07-31T06:40:39;100234.59;;;17.74;91.33
46942;BME280;32676;52.630;4.896;2023-07-31T06:43:06;100226.47;;;17.75;91.18
46942;BME280;32676;52.630;4.896;2023-07-31T06:45:33;100251.03;;;17.79;91.13
46942;BME280;32676;52.630;4.896;2023-07-31T06:48:00;100264.09;;;17.82;90.93
46942;BME280;32676;52.630;4.896;2023-07-31T06:50:27;100277.28;;;17.83;91.22
46942;BME280;32676;52.630;4.896;2023-07-31T06:52:55;100286.88;;;17.86;91.22
46942;BME280;32676;52.630;4.896;2023-07-31T06:55:21;100299.22;;;17.87;91.06
46942;BME280;32676;52.630;4.896;2023-07-31T06:57:48;100300.91;;;17.88;90.72
46942;BME280;32676;52.630;4.896;2023-07-31T07:00:14;100306.09;;;17.90;90.89
46942;BME280;32676;52.630;4.896;2023-07-31T07:02:41;100313.25;;;17.89;90.71
46942;BME280;32676;52.630;4.896;2023-07-31T07:05:07;100313.03;;;17.92;90.69
46942;BME280;32676;52.630;4.896;2023-07-31T07:07:34;100327.06;;;17.94;90.76
46942;BME280;32676;52.630;4.896;2023-07-31T07:10:02;100351.53;;;17.99;90.75
46942;BME280;32676;52.630;4.896;2023-07-31T07:12:30;100372.53;;;18.02;90.72
46942;BME280;32676;52.630;4.896;2023-07-31T07:14:56;100372.53;;;18.02;90.83
46942;BME280;32676;52.630;4.896;2023-07-31T07:17:23;100401.28;;;18.10;90.79
46942;BME280;32676;52.630;4.896;2023-07-31T07:19:49;100406.47;;;18.12;90.78
46942;BME280;32676;52.630;4.896;2023-07-31T07:22:16;100417.88;;;18.14;90.63
46942;BME280;32676;52.630;4.896;2023-07-31T07:24:42;100429.25;;;18.16;90.56
46942;BME280;32676;52.630;4.896;2023-07-31T07:27:10;100433.59;;;18.17;90.33
46942;BME280;32676;52.630;4.896;2023-07-31T07:29:37;100448.38;;;18.21;90.35
46942;BME280;32676;52.630;4.896;2023-07-31T07:32:04;100449.34;;;18.20;90.27
46942;BME280;32676;52.630;4.896;2023-07-31T07:34:30;100440.63;;;18.18;89.92
46942;BME280;32676;52.630;4.896;2023-07-31T07:36:57;100432.75;;;18.16;89.73
46942;BME280;32676;52.630;4.896;2023-07-31T07:39:23;100423.19;;;18.14;89.83
46942;BME280;32676;52.630;4.896;2023-07-31T07:41:50;100415.31;;;18.12;89.80
46942;BME280;32676;52.630;4.896;2023-07-31T07:44:19;100414.44;;;18.12;89.84
46942;BME280;32676;52.630;4.896;2023-07-31T07:46:45;100423.19;;;18.14;90.31
46942;BME280;32676;52.630;4.896;2023-07-31T07:49:12;100438.91;;;18.17;90.36
46942;BME280;32676;52.630;4.896;2023-07-31T07:51:38;100442.31;;;18.19;90.57
46942;BME280;32676;52.630;4.896;2023-07-31T07:54:04;100446.69;;;18.20;90.50
46942;BME280;32676;52.630;4.896;2023-07-31T07:56:31;100460.72;;;18.22;90.60
46942;BME280;32676;52.630;4.896;2023-07-31T07:58:58;100470.41;;;18.23;90.51
46942;BME280;32676;52.630;4.896;2023-07-31T08:01:25;100484.25;;;18.28;90.82
46942;BME280;32676;52.630;4.896;2023-07-31T08:03:51;100505.28;;;18.31;90.59
46942;BME280;32676;52.630;4.896;2023-07-31T08:06:18;100538.47;;;18.38;90.60
46942;BME280;32676;52.630;4.896;2023-07-31T08:08:44;100546.25;;;18.41;90.43
46942;BME280;32676;52.630;4.896;2023-07-31T08:11:10;100570.00;;;18.45;90.28
46942;BME280;32676;52.630;4.896;2023-07-31T08:13:37;100575.09;;;18.48;89.99
46942;BME280;32676;52.630;4.896;2023-07-31T08:16:03;100583.81;;;18.50;90.19
46942;BME280;32676;52.630;4.896;2023-07-31T08:18:31;100585.53;;;18.51;89.95
46942;BME280;32676;52.630;4.896;2023-07-31T08:20:58;100605.84;;;18.52;89.53
46942;BME280;32676;52.630;4.896;2023-07-31T08:23:24;100615.34;;;18.56;89.78
46942;BME280;32676;52.630;4.896;2023-07-31T08:25:51;100646.00;;;18.61;89.83
46942;BME280;32676;52.630;4.896;2023-07-31T08:28:17;100646.84;;;18.62;89.87
46942;BME280;32676;52.630;4.896;2023-07-31T08:30:43;100663.44;;;18.66;89.74
46942;BME280;32676;52.630;4.896;2023-07-31T08:33:09;100650.22;;;18.64;89.88
46942;BME280;32676;52.630;4.896;2023-07-31T08:35:37;100654.72;;;18.64;89.85
46942;BME280;32676;52.630;4.896;2023-07-31T08:38:03;100665.16;;;18.67;89.42
46942;BME280;32676;52.630;4.896;2023-07-31T08:40:30;100699.22;;;18.74;89.62
46942;BME280;32676;52.630;4.896;2023-07-31T08:42:56;100732.50;;;18.82;89.50
46942;BME280;32676;52.630;4.896;2023-07-31T08:45:27;100729.81;;;18.82;89.62
46942;BME280;32676;52.630;4.896;2023-07-31T08:47:53;100739.50;;;18.83;89.45
46942;BME280;32676;52.630;4.896;2023-07-31T08:50:21;100769.34;;;18.88;89.45
46942;BME280;32676;52.630;4.896;2023-07-31T08:52:49;100778.06;;;18.90;89.47
46942;BME280;32676;52.630;4.896;2023-07-31T08:55:16;100777.97;;;18.91;89.26
46942;BME280;32676;52.630;4.896;2023-07-31T08:57:43;100785.84;;;18.93;89.01
46942;BME280;32676;52.630;4.896;2023-07-31T09:00:10;100782.34;;;18.92;89.05
46942;BME280;32676;52.630;4.896;2023-07-31T09:02:37;100772.63;;;18.91;88.85
46942;BME280;32676;52.630;4.896;2023-07-31T09:05:06;100776.19;;;18.92;88.72
46942;BME280;32676;52.630;4.896;2023-07-31T09:07:33;100774.47;;;18.91;88.77
46942;BME280;32676;52.630;4.896;2023-07-31T09:10:01;100783.19;;;18.93;88.53
46942;BME280;32676;52.630;4.896;2023-07-31T09:12:27;100791.94;;;18.95;88.51
46942;BME280;32676;52.630;4.896;2023-07-31T09:14:54;100819.09;;;19.00;88.89
46942;BME280;32676;52.630;4.896;2023-07-31T09:17:28;100815.59;;;18.99;88.78
46942;BME280;32676;52.630;4.896;2023-07-31T09:19:55;100823.25;;;19.04;88.97
46942;BME280;32676;52.630;4.896;2023-07-31T09:22:25;100846.09;;;19.08;88.96
46942;BME280;32676;52.630;4.896;2023-07-31T09:24:56;100887.31;;;19.15;88.80
46942;BME280;32676;52.630;4.896;2023-07-31T09:27:32;100902.16;;;19.20;88.92
46942;BME280;32676;52.630;4.896;2023-07-31T09:30:11;100898.50;;;19.21;88.82
46942;BME280;32676;52.630;4.896;2023-07-31T09:32:37;100900.41;;;19.18;88.52
46942;BME280;32676;52.630;4.896;2023-07-31T09:35:11;100899.47;;;19.20;88.57
46942;BME280;32676;52.630;4.896;2023-07-31T09:37:38;100909.91;;;19.23;88.15
46942;BME280;32676;52.630;4.896;2023-07-31T09:40:05;100913.44;;;19.23;88.16
46942;BME280;32676;52.630;4.896;2023-07-31T09:42:33;100921.34;;;19.25;88.21
46942;BME280;32676;52.630;4.896;2023-07-31T09:45:06;100962.38;;;19.35;88.07
46942;BME280;32676;52.630;4.896;2023-07-31T09:47:33;100965.88;;;19.35;87.64
46942;BME280;32676;52.630;4.896;2023-07-31T09:49:59;100972.94;;;19.36;87.50
46942;BME280;32676;52.630;4.896;2023-07-31T09:52:25;101014.13;;;19.45;87.39
46942;BME280;32676;52.630;4.896;2023-07-31T09:54:52;101007.81;;;19.46;87.63
46942;BME280;32676;52.630;4.896;2023-07-31T09:57:18;101000.03;;;19.43;87.58
46942;BME280;32676;52.630;4.896;2023-07-31T09:59:49;100973.78;;;19.37;87.51
46942;BME280;32676;52.630;4.896;2023-07-31T10:02:19;100938.63;;;19.32;87.17
46942;BME280;32676;52.630;4.896;2023-07-31T10:04:47;100952.69;;;19.34;87.12
46942;BME280;32676;52.630;4.896;2023-07-31T10:07:15;100956.09;;;19.36;87.13
46942;BME280;32676;52.630;4.896;2023-07-31T10:09:43;100978.91;;;19.40;87.01
46942;BME280;32676;52.630;4.896;2023-07-31T10:12:10;101009.63;;;19.46;86.97
46942;BME280;32676;52.630;4.896;2023-07-31T10:14:38;101012.19;;;19.47;86.73
46942;BME280;32676;52.630;4.896;2023-07-31T10:17:06;100997.38;;;19.43;86.62
46942;BME280;32676;52.630;4.896;2023-07-31T10:19:34;101012.19;;;19.47;86.42
46942;BME280;32676;52.630;4.896;2023-07-31T10:22:00;101002.47;;;19.46;86.26
46942;BME280;32676;52.630;4.896;2023-07-31T10:24:28;100991.94;;;19.45;86.53
46942;BME280;32676;52.630;4.896;2023-07-31T10:26:55;101006.88;;;19.47;86.60
46942;BME280;32676;52.630;4.896;2023-07-31T10:29:23;101038.44;;;19.53;86.89
46942;BME280;32676;52.630;4.896;2023-07-31T10:31:50;101045.28;;;19.58;87.07
46942;BME280;32676;52.630;4.896;2023-07-31T10:34:19;101075.13;;;19.63;87.02
46942;BME280;32676;52.630;4.896;2023-07-31T10:36:45;101096.06;;;19.69;87.12
46942;BME280;32676;52.630;4.896;2023-07-31T10:41:53;101146.91;;;19.80;86.96
46942;BME280;32676;52.630;4.896;2023-07-31T10:44:19;101157.38;;;19.83;86.55
46942;BME280;32676;52.630;4.896;2023-07-31T10:46:46;101173.16;;;19.86;85.49
46942;BME280;32676;52.630;4.896;2023-07-31T10:49:12;101173.16;;;19.86;85.54
46942;BME280;32676;52.630;4.896;2023-07-31T10:51:48;101144.25;;;19.80;85.08
46942;BME280;32676;52.630;4.896;2023-07-31T10:54:15;101141.56;;;19.80;85.02
46942;BME280;32676;52.630;4.896;2023-07-31T10:56:44;101157.56;;;19.80;85.03
46942;BME280;32676;52.630;4.896;2023-07-31T10:59:11;101208.19;;;19.94;85.28
46942;BME280;32676;52.630;4.896;2023-07-31T11:01:51;101229.13;;;20.01;85.22
46942;BME280;32676;52.630;4.896;2023-07-31T11:04:21;101262.44;;;20.08;85.12
46942;BME280;32676;52.630;4.896;2023-07-31T11:06:56;101298.44;;;20.15;84.95
46942;BME280;32676;52.630;4.896;2023-07-31T11:09:24;101337.97;;;20.23;84.24
46942;BME280;32676;52.630;4.896;2023-07-31T11:11:50;101367.81;;;20.29;83.61
46942;BME280;32676;52.630;4.896;2023-07-31T11:14:17;101362.47;;;20.29;83.91
46942;BME280;32676;52.630;4.896;2023-07-31T11:16:43;101353.69;;;20.27;83.25
46942;BME280;32676;52.630;4.896;2023-07-31T11:19:10;101361.63;;;20.29;83.15
46942;BME280;32676;52.630;4.896;2023-07-31T11:21:36;101356.19;;;20.30;83.15
46942;BME280;32676;52.630;4.896;2023-07-31T11:24:04;101364.94;;;20.32;82.85
46942;BME280;32676;52.630;4.896;2023-07-31T11:26:30;101466.81;;;20.53;83.45
46942;BME280;32676;52.630;4.896;2023-07-31T11:28:56;101587.06;;;20.81;83.13
46942;BME280;32676;52.630;4.896;2023-07-31T11:31:23;101711.88;;;21.07;83.20
46942;BME280;32676;52.630;4.896;2023-07-31T11:33:49;101757.50;;;21.19;82.59
46942;BME280;32676;52.630;4.896;2023-07-31T11:36:16;101743.47;;;21.15;80.94
46942;BME280;32676;52.630;4.896;2023-07-31T11:38:42;101705.59;;;21.08;81.11
46942;BME280;32676;52.630;4.896;2023-07-31T11:41:10;101672.19;;;21.01;81.58
46942;BME280;32676;52.630;4.896;2023-07-31T11:43:36;101672.94;;;21.03;82.45
46942;BME280;32676;52.630;4.896;2023-07-31T11:46:03;101681.72;;;21.05;82.35
46942;BME280;32676;52.630;4.896;2023-07-31T11:48:31;101684.41;;;21.05;81.12
46942;BME280;32676;52.630;4.896;2023-07-31T11:50:59;101701.84;;;21.11;80.79
46942;BME280;32676;52.630;4.896;2023-07-31T11:53:26;101693.94;;;21.09;80.68
46942;BME280;32676;52.630;4.896;2023-07-31T11:55:55;101681.63;;;21.07;80.73
46942;BME280;32676;52.630;4.896;2023-07-31T11:58:25;101671.03;;;21.05;80.07
46942;BME280;32676;52.630;4.896;2023-07-31T12:00:52;101642.78;;;21.01;80.14
46942;BME280;32676;52.630;4.896;2023-07-31T12:03:18;101576.00;;;20.87;79.70
46942;BME280;32676;52.630;4.896;2023-07-31T12:05:46;101498.56;;;20.73;79.76
46942;BME280;32676;52.630;4.896;2023-07-31T12:08:13;101430.06;;;20.57;80.13
46942;BME280;32676;52.630;4.896;2023-07-31T12:10:40;101412.56;;;20.53;80.53
46942;BME280;32676;52.630;4.896;2023-07-31T12:13:07;101397.59;;;20.50;80.27
46942;BME280;32676;52.630;4.896;2023-07-31T12:15:38;101368.50;;;20.46;80.79
46942;BME280;32676;52.630;4.896;2023-07-31T12:18:05;101388.72;;;20.50;81.10
46942;BME280;32676;52.630;4.896;2023-07-31T12:20:32;101415.97;;;20.55;80.92
46942;BME280;32676;52.630;4.896;2023-07-31T12:22:59;101439.53;;;20.63;81.08
46942;BME280;32676;52.630;4.896;2023-07-31T12:25:28;101452.78;;;20.64;81.09
46942;BME280;32676;52.630;4.896;2023-07-31T12:27:55;101447.44;;;20.64;80.27
46942;BME280;32676;52.630;4.896;2023-07-31T12:30:28;101462.34;;;20.68;80.49
46942;BME280;32676;52.630;4.896;2023-07-31T12:32:55;101475.47;;;20.71;80.52
46942;BME280;32676;52.630;4.896;2023-07-31T12:35:22;101451.75;;;20.67;80.57
46942;BME280;32676;52.630;4.896;2023-07-31T12:37:48;101438.50;;;20.65;80.45
46942;BME280;32676;52.630;4.896;2023-07-31T12:40:14;101485.13;;;20.74;80.47
46942;BME280;32676;52.630;4.896;2023-07-31T12:42:41;101523.72;;;20.83;80.42
46942;BME280;32676;52.630;4.896;2023-07-31T12:45:07;101559.56;;;20.93;80.22
46942;BME280;32676;52.630;4.896;2023-07-31T12:47:34;101562.16;;;20.95;79.73
46942;BME280;32676;52.630;4.896;2023-07-31T12:50:01;101575.41;;;20.96;79.17
46942;BME280;32676;52.630;4.896;2023-07-31T12:52:28;101589.34;;;21.01;78.97
46942;BME280;32676;52.630;4.896;2023-07-31T12:54:54;101627.88;;;21.12;79.23
46942;BME280;32676;52.630;4.896;2023-07-31T12:57:21;101667.59;;;21.18;78.78